Time;durP1;ratioP1;P1;durP2;ratioP2;P2;SDS_P1;SDS_P2;PMS_P1;PMS_P2;Temp;Humidity;BMP_temperature;BMP_pressure;BME280_temperature;BME280_humidity;BME280_pressure;Samples;Min_cycle;Max_cycle;Signal;HPM_P1;HPM_P2
2021/07/11 00:01:04;;;;;;;0.20;0.20;;;18.70;99.90;;;;;;5057319;28;20242;-83
2021/07/11 00:03:30;;;;;;;0.10;0.10;;;18.70;99.90;;;;;;5038207;28;20287;-84
2021/07/11 00:05:56;;;;;;;0.10;0.10;;;18.70;99.90;;;;;;5035605;28;20198;-83
2021/07/11 00:08:21;;;;;;;0.10;0.10;;;18.70;99.90;;;;;;5035048;28;20200;-84
2021/07/11 00:10:47;;;;;;;0.10;0.10;;;18.80;99.90;;;;;;5061841;28;20221;-83
2021/07/11 00:13:12;;;;;;;0.23;0.23;;;18.80;99.90;;;;;;5060463;28;20664;-83
2021/07/11 00:15:38;;;;;;;0.20;0.20;;;18.80;99.90;;;;;;5048208;28;20205;-83
2021/07/11 00:18:04;;;;;;;0.20;0.20;;;18.90;99.90;;;;;;5036085;28;20206;-83
2021/07/11 00:20:30;;;;;;;0.30;0.30;;;19.00;99.90;;;;;;5055147;28;20190;-84
2021/07/11 00:22:56;;;;;;;0.20;0.20;;;19.00;99.90;;;;;;5070333;28;20785;-84
2021/07/11 00:25:22;;;;;;;0.20;0.20;;;19.00;99.90;;;;;;5049481;28;20554;-84
2021/07/11 00:27:48;;;;;;;0.20;0.20;;;19.00;99.90;;;;;;5044408;28;20662;-83
2021/07/11 00:30:16;;;;;;;0.20;0.20;;;19.00;99.90;;;;;;5045301;28;20276;-84
2021/07/11 00:32:42;;;;;;;0.20;0.20;;;18.90;99.90;;;;;;5034917;28;20178;-84
2021/07/11 00:35:09;;;;;;;0.13;0.13;;;18.80;99.90;;;;;;5054664;28;20203;-84
2021/07/11 00:37:34;;;;;;;0.20;0.20;;;18.80;99.90;;;;;;5039736;28;20216;-84
2021/07/11 00:40:00;;;;;;;0.20;0.20;;;18.80;99.90;;;;;;5043851;28;20192;-84
2021/07/11 00:42:26;;;;;;;0.20;0.20;;;18.70;99.90;;;;;;5053112;28;20182;-84
2021/07/11 00:44:51;;;;;;;0.87;0.87;;;18.70;99.90;;;;;;5061852;28;20278;-84
2021/07/11 00:47:17;;;;;;;0.10;0.10;;;18.70;99.90;;;;;;5052898;28;20200;-83
2021/07/11 00:49:44;;;;;;;0.30;0.30;;;18.70;99.90;;;;;;5052830;28;20196;-83
2021/07/11 00:52:11;;;;;;;0.20;0.20;;;18.80;99.90;;;;;;5035585;28;20243;-83
2021/07/11 00:54:37;;;;;;;2.30;0.40;;;18.80;99.90;;;;;;5062115;28;20205;-83
2021/07/11 00:57:04;;;;;;;0.30;0.30;;;18.80;99.90;;;;;;5034659;28;20204;-83
2021/07/11 00:59:30;;;;;;;0.20;0.20;;;18.80;99.90;;;;;;5057680;28;20235;-83
2021/07/11 01:02:05;;;;;;;0.47;0.20;;;18.80;99.90;;;;;;5057765;28;20184;-83
2021/07/11 01:04:42;;;;;;;0.30;0.30;;;18.80;99.90;;;;;;5049103;28;20253;-84
2021/07/11 01:07:09;;;;;;;0.20;0.20;;;18.80;99.90;;;;;;5056384;28;20708;-83
2021/07/11 01:09:41;;;;;;;0.27;0.27;;;18.80;99.90;;;;;;5058978;28;20182;-83
2021/07/11 01:12:15;;;;;;;0.37;0.37;;;18.80;99.90;;;;;;5052317;28;20193;-83
2021/07/11 01:14:43;;;;;;;0.20;0.20;;;18.80;99.90;;;;;;5036748;28;20241;-84
2021/07/11 01:17:10;;;;;;;1.07;0.40;;;18.80;99.90;;;;;;5060396;28;20209;-83
2021/07/11 01:19:58;;;;;;;0.20;0.20;;;18.80;99.90;;;;;;5038200;28;20198;-84
2021/07/11 01:22:30;;;;;;;0.30;0.30;;;18.70;99.90;;;;;;5040861;28;20764;-83
2021/07/11 01:25:08;;;;;;;0.27;0.23;;;18.70;99.90;;;;;;5044823;28;20209;-84
2021/07/11 01:27:35;;;;;;;0.40;0.40;;;18.60;99.90;;;;;;5060175;28;20228;-84
2021/07/11 01:30:05;;;;;;;0.30;0.30;;;18.60;99.90;;;;;;5031537;28;20280;-83
2021/07/11 01:32:30;;;;;;;0.20;0.20;;;18.60;99.90;;;;;;5035334;28;20181;-83
2021/07/11 01:35:00;;;;;;;0.17;0.17;;;18.50;99.90;;;;;;5056624;28;20257;-83
2021/07/11 01:37:27;;;;;;;0.23;0.23;;;18.50;99.90;;;;;;5027272;28;20207;-83
2021/07/11 01:39:54;;;;;;;0.47;0.13;;;18.40;99.90;;;;;;5059521;28;20185;-84
2021/07/11 01:42:20;;;;;;;0.20;0.20;;;18.50;99.90;;;;;;5048022;28;20189;-83
2021/07/11 01:44:47;;;;;;;0.20;0.20;;;18.50;99.90;;;;;;5034554;28;20689;-83
2021/07/11 01:47:13;;;;;;;0.20;0.20;;;18.50;99.90;;;;;;5038499;28;20273;-84
2021/07/11 01:49:40;;;;;;;0.30;0.30;;;18.60;99.90;;;;;;5065660;28;20196;-84
2021/07/11 01:52:07;;;;;;;0.20;0.20;;;18.50;99.90;;;;;;5039276;28;20543;-84
2021/07/11 01:54:33;;;;;;;0.20;0.20;;;18.50;99.90;;;;;;5041318;28;20207;-83
2021/07/11 01:56:59;;;;;;;0.20;0.20;;;18.40;99.90;;;;;;5034846;28;20212;-83
2021/07/11 01:59:24;;;;;;;0.90;0.90;;;18.40;99.90;;;;;;5059525;28;20259;-84
2021/07/11 02:01:50;;;;;;;0.23;0.23;;;18.30;99.90;;;;;;5037586;28;20272;-84
2021/07/11 02:04:16;;;;;;;0.20;0.20;;;18.30;99.90;;;;;;5049268;28;20254;-83
2021/07/11 02:06:42;;;;;;;0.30;0.30;;;18.30;99.90;;;;;;5052210;28;20210;-84
2021/07/11 02:09:09;;;;;;;0.80;0.80;;;18.40;99.90;;;;;;5051603;28;20556;-84
2021/07/11 02:11:38;;;;;;;0.73;0.47;;;18.40;99.90;;;;;;5034827;28;20258;-83
2021/07/11 02:14:31;;;;;;;0.37;0.37;;;18.50;99.90;;;;;;5063430;28;20204;-82
2021/07/11 02:17:02;;;;;;;0.20;0.20;;;18.60;99.90;;;;;;5056636;28;20716;-84
2021/07/11 02:19:32;;;;;;;0.63;0.47;;;18.60;99.90;;;;;;5034730;28;20268;-83
2021/07/11 02:21:58;;;;;;;0.17;0.17;;;18.50;99.90;;;;;;5040202;28;20181;-84
2021/07/11 02:24:25;;;;;;;0.40;0.40;;;18.60;99.90;;;;;;5050341;28;20201;-84
2021/07/11 02:26:52;;;;;;;0.23;0.23;;;18.60;99.90;;;;;;5035071;28;20197;-84
2021/07/11 02:29:18;;;;;;;0.27;0.27;;;18.60;99.90;;;;;;5032633;28;20186;-84
2021/07/11 02:31:45;;;;;;;0.17;0.17;;;18.60;99.90;;;;;;5054861;28;20692;-83
2021/07/11 02:34:13;;;;;;;0.20;0.20;;;18.60;99.90;;;;;;5039466;28;20394;-83
2021/07/11 02:36:50;;;;;;;0.27;0.27;;;18.60;99.90;;;;;;5058579;28;20215;-84
2021/07/11 02:39:18;;;;;;;0.40;0.40;;;18.60;99.90;;;;;;5036612;28;20264;-84
2021/07/11 02:41:51;;;;;;;0.40;0.40;;;18.50;99.90;;;;;;5038180;28;20307;-83
2021/07/11 02:44:19;;;;;;;1.17;0.43;;;18.50;99.90;;;;;;5036725;28;20202;-83
2021/07/11 02:46:49;;;;;;;0.30;0.30;;;18.40;99.90;;;;;;5037906;28;20190;-83
2021/07/11 02:49:21;;;;;;;0.27;0.20;;;18.30;99.90;;;;;;5051096;28;20255;-83
2021/07/11 02:51:53;;;;;;;0.20;0.20;;;18.30;99.90;;;;;;5033330;28;20195;-85
2021/07/11 02:54:24;;;;;;;1.10;0.40;;;18.30;99.90;;;;;;5028513;28;20202;-85
2021/07/11 02:56:55;;;;;;;0.53;0.30;;;18.40;99.90;;;;;;5052176;28;20208;-86
2021/07/11 02:59:21;;;;;;;0.30;0.30;;;18.30;99.90;;;;;;5034986;28;20214;-85
2021/07/11 03:01:48;;;;;;;0.20;0.20;;;18.30;99.90;;;;;;5035032;28;20177;-85
2021/07/11 03:04:14;;;;;;;0.93;0.93;;;18.30;99.90;;;;;;5029201;28;20243;-85
2021/07/11 03:06:40;;;;;;;0.20;0.20;;;18.30;99.90;;;;;;5041834;28;20193;-86
2021/07/11 03:09:06;;;;;;;0.27;0.27;;;18.40;99.90;;;;;;5037658;28;20224;-85
2021/07/11 03:11:35;;;;;;;1.37;0.60;;;18.40;99.90;;;;;;5052188;28;20189;-85
2021/07/11 03:14:03;;;;;;;0.10;0.10;;;18.40;99.90;;;;;;5046264;28;20579;-85
2021/07/11 03:16:29;;;;;;;0.20;0.20;;;18.40;99.90;;;;;;5054459;28;20225;-86
2021/07/11 03:18:56;;;;;;;0.43;0.43;;;18.40;99.90;;;;;;5042991;28;20185;-86
2021/07/11 03:21:25;;;;;;;0.40;0.40;;;18.40;99.90;;;;;;5054035;28;20281;-85
2021/07/11 03:23:53;;;;;;;0.13;0.13;;;18.40;99.90;;;;;;5036925;28;20255;-86
2021/07/11 03:26:20;;;;;;;0.30;0.30;;;18.40;99.90;;;;;;5036790;28;20186;-86
2021/07/11 03:28:50;;;;;;;0.20;0.20;;;18.40;99.90;;;;;;5036421;28;20560;-85
2021/07/11 03:31:18;;;;;;;0.27;0.27;;;18.40;99.90;;;;;;5069008;28;20233;-86
2021/07/11 03:33:54;;;;;;;0.30;0.30;;;18.40;99.90;;;;;;5058717;28;20185;-85
2021/07/11 03:36:22;;;;;;;0.37;0.37;;;18.40;99.90;;;;;;5049117;28;20244;-86
2021/07/11 03:38:52;;;;;;;0.20;0.20;;;18.40;99.90;;;;;;5037083;28;20178;-86
2021/07/11 03:41:21;;;;;;;0.30;0.30;;;18.50;99.90;;;;;;5043241;28;20189;-86
2021/07/11 03:43:54;;;;;;;0.10;0.10;;;18.50;99.90;;;;;;5049991;28;20181;-85
2021/07/11 03:46:24;;;;;;;0.40;0.40;;;18.40;99.90;;;;;;5054345;28;20330;-85
2021/07/11 03:48:58;;;;;;;0.10;0.10;;;18.40;99.90;;;;;;5052005;28;20196;-85
2021/07/11 03:51:32;;;;;;;0.60;0.30;;;18.40;99.90;;;;;;5036482;28;20192;-85
2021/07/11 03:53:59;;;;;;;0.20;0.20;;;18.50;99.90;;;;;;5036386;28;20292;-85
2021/07/11 03:56:27;;;;;;;0.30;0.30;;;18.50;99.90;;;;;;5045025;28;20602;-85
2021/07/11 03:58:57;;;;;;;0.40;0.40;;;18.50;99.90;;;;;;5036952;28;20277;-83
2021/07/11 04:01:26;;;;;;;0.20;0.20;;;18.50;99.90;;;;;;5055756;28;20207;-83
2021/07/11 04:03:54;;;;;;;0.50;0.50;;;18.50;99.90;;;;;;5040963;28;20177;-82
2021/07/11 04:06:21;;;;;;;0.97;0.53;;;18.50;99.90;;;;;;5058934;28;20646;-83
2021/07/11 04:08:48;;;;;;;0.20;0.20;;;18.50;99.90;;;;;;5063713;28;20665;-83
2021/07/11 04:11:14;;;;;;;0.30;0.30;;;18.50;99.90;;;;;;5040637;28;20190;-83
2021/07/11 04:13:40;;;;;;;0.23;0.23;;;18.50;99.90;;;;;;5036495;28;20263;-83
2021/07/11 04:16:07;;;;;;;1.17;0.30;;;18.50;99.90;;;;;;5039303;28;20189;-83
2021/07/11 04:18:41;;;;;;;0.37;0.37;;;18.50;99.90;;;;;;5037079;28;20194;-83
2021/07/11 04:21:08;;;;;;;0.37;0.37;;;18.40;99.90;;;;;;5045410;28;20277;-83
2021/07/11 04:23:34;;;;;;;0.27;0.27;;;18.40;99.90;;;;;;5033248;28;20194;-83
2021/07/11 04:26:03;;;;;;;0.10;0.10;;;18.50;99.90;;;;;;5050107;28;20283;-83
2021/07/11 04:28:31;;;;;;;0.20;0.20;;;18.50;99.90;;;;;;5034736;28;20187;-83
2021/07/11 04:31:02;;;;;;;0.20;0.20;;;18.50;99.90;;;;;;5054310;28;20284;-83
2021/07/11 04:33:30;;;;;;;0.17;0.17;;;18.50;99.90;;;;;;5033926;28;20193;-83
2021/07/11 04:35:56;;;;;;;0.30;0.30;;;18.40;99.90;;;;;;5034927;28;20232;-84
2021/07/11 04:38:21;;;;;;;0.23;0.23;;;18.50;99.90;;;;;;5034217;28;20231;-83
2021/07/11 04:40:47;;;;;;;0.20;0.20;;;18.50;99.90;;;;;;5040603;28;20185;-84
2021/07/11 04:43:16;;;;;;;0.20;0.20;;;18.30;99.90;;;;;;5041924;28;20186;-83
2021/07/11 04:45:42;;;;;;;0.47;0.47;;;18.20;99.90;;;;;;5055550;28;20204;-84
2021/07/11 04:48:08;;;;;;;0.40;0.40;;;18.10;99.90;;;;;;5043855;28;20189;-83
2021/07/11 04:50:33;;;;;;;0.40;0.40;;;18.00;99.90;;;;;;5037315;28;20281;-84
2021/07/11 04:52:59;;;;;;;0.30;0.20;;;18.00;99.90;;;;;;5043509;28;20193;-83
2021/07/11 04:55:25;;;;;;;0.23;0.23;;;18.00;99.90;;;;;;5031364;28;20297;-83
2021/07/11 04:57:51;;;;;;;0.87;0.70;;;18.00;99.90;;;;;;5058580;28;20244;-83
2021/07/11 05:00:17;;;;;;;0.30;0.30;;;18.00;99.90;;;;;;5060475;28;20220;-83
2021/07/11 05:02:43;;;;;;;0.40;0.33;;;18.00;99.90;;;;;;5032230;28;20609;-83
2021/07/11 05:05:09;;;;;;;0.43;0.43;;;18.10;99.90;;;;;;5035060;28;20210;-82
2021/07/11 05:07:36;;;;;;;0.33;0.33;;;18.10;99.90;;;;;;5059714;28;20189;-83
2021/07/11 05:10:08;;;;;;;0.50;0.50;;;18.20;99.90;;;;;;5035190;28;20195;-84
2021/07/11 05:12:34;;;;;;;1.67;0.80;;;18.20;99.90;;;;;;5055058;28;20189;-83
2021/07/11 05:15:01;;;;;;;0.23;0.23;;;18.20;99.90;;;;;;5051570;28;20218;-83
2021/07/11 05:17:26;;;;;;;0.40;0.40;;;18.20;99.90;;;;;;5034375;28;20743;-83
2021/07/11 05:19:52;;;;;;;1.07;0.30;;;18.10;99.90;;;;;;5050635;28;20288;-82
2021/07/11 05:22:18;;;;;;;0.20;0.20;;;18.20;99.90;;;;;;5063407;28;20189;-84
2021/07/11 05:24:44;;;;;;;0.40;0.40;;;18.20;99.90;;;;;;5039661;28;20287;-83
2021/07/11 05:27:09;;;;;;;0.20;0.20;;;18.20;99.90;;;;;;5040236;28;20636;-83
2021/07/11 05:29:35;;;;;;;0.63;0.57;;;18.10;99.90;;;;;;5065443;28;20192;-84
2021/07/11 05:32:01;;;;;;;0.23;0.23;;;18.10;99.90;;;;;;5035232;28;20196;-84
2021/07/11 05:34:26;;;;;;;0.40;0.40;;;18.20;99.90;;;;;;5034218;28;20696;-83
2021/07/11 05:36:52;;;;;;;0.43;0.43;;;18.20;99.90;;;;;;5055310;28;20247;-84
2021/07/11 05:39:19;;;;;;;0.10;0.10;;;18.30;99.90;;;;;;5034706;28;20184;-83
2021/07/11 05:41:45;;;;;;;0.30;0.30;;;18.30;99.90;;;;;;5040374;28;20211;-84
2021/07/11 05:44:11;;;;;;;0.50;0.50;;;18.40;99.90;;;;;;5033929;28;20598;-83
2021/07/11 05:46:37;;;;;;;0.77;0.20;;;18.40;99.90;;;;;;5035934;28;20208;-82
2021/07/11 05:49:03;;;;;;;0.30;0.30;;;18.50;99.90;;;;;;5032991;28;20650;-83
2021/07/11 05:51:29;;;;;;;0.27;0.27;;;18.50;99.90;;;;;;5035759;28;20203;-84
2021/07/11 05:53:55;;;;;;;1.90;0.90;;;18.50;99.90;;;;;;5060893;28;20756;-83
2021/07/11 05:56:20;;;;;;;0.37;0.37;;;18.50;99.90;;;;;;5055074;28;20210;-83
2021/07/11 05:58:46;;;;;;;0.33;0.33;;;18.60;99.90;;;;;;5033312;28;20196;-82
2021/07/11 06:01:12;;;;;;;0.33;0.30;;;18.60;99.90;;;;;;5050568;28;20177;-84
2021/07/11 06:03:37;;;;;;;0.20;0.20;;;18.70;99.90;;;;;;5033419;28;20184;-83
2021/07/11 06:06:03;;;;;;;0.20;0.20;;;18.70;99.90;;;;;;5037610;28;20181;-84
2021/07/11 06:08:29;;;;;;;0.20;0.20;;;18.70;99.90;;;;;;5046675;28;20177;-84
2021/07/11 06:10:55;;;;;;;0.30;0.30;;;18.80;99.90;;;;;;5033493;28;20530;-84
2021/07/11 06:13:21;;;;;;;0.30;0.30;;;18.80;99.90;;;;;;5045043;28;20672;-83
2021/07/11 06:15:47;;;;;;;0.30;0.30;;;18.90;99.90;;;;;;5042628;28;20193;-83
2021/07/11 06:18:13;;;;;;;0.53;0.53;;;18.90;99.90;;;;;;5039166;28;20201;-83
2021/07/11 06:20:38;;;;;;;0.60;0.50;;;19.00;99.90;;;;;;5039466;28;20195;-84
2021/07/11 06:23:04;;;;;;;0.80;0.27;;;18.90;99.90;;;;;;5050670;28;20188;-84
2021/07/11 06:25:30;;;;;;;0.20;0.20;;;18.80;99.90;;;;;;5034743;28;20259;-83
2021/07/11 06:27:56;;;;;;;0.10;0.10;;;18.90;99.90;;;;;;5064831;28;20724;-83
2021/07/11 06:30:22;;;;;;;0.30;0.30;;;18.80;99.90;;;;;;5051007;28;20715;-84
2021/07/11 06:32:49;;;;;;;0.23;0.23;;;18.90;99.90;;;;;;5055479;28;20182;-83
2021/07/11 06:35:17;;;;;;;0.30;0.30;;;18.90;99.90;;;;;;5037643;28;20230;-83
2021/07/11 06:37:45;;;;;;;2.10;0.40;;;19.00;99.90;;;;;;5031805;28;20275;-84
2021/07/11 06:40:12;;;;;;;0.30;0.30;;;19.00;99.90;;;;;;5049356;28;20272;-84
2021/07/11 06:42:38;;;;;;;0.53;0.53;;;19.10;99.90;;;;;;5052773;28;20194;-84
2021/07/11 06:45:05;;;;;;;0.20;0.20;;;19.00;99.90;;;;;;5053512;28;20964;-84
2021/07/11 06:47:30;;;;;;;0.43;0.40;;;19.00;99.90;;;;;;5035583;28;20235;-84
2021/07/11 06:49:56;;;;;;;0.37;0.33;;;19.00;99.90;;;;;;5036597;28;20193;-83
2021/07/11 06:52:22;;;;;;;0.30;0.30;;;19.10;99.90;;;;;;5041316;28;20645;-82
2021/07/11 06:54:51;;;;;;;0.20;0.20;;;19.10;99.90;;;;;;5042717;28;20205;-81
2021/07/11 06:57:19;;;;;;;0.20;0.20;;;19.10;99.90;;;;;;5041559;28;20201;-82
2021/07/11 06:59:45;;;;;;;0.30;0.30;;;19.10;99.90;;;;;;5063390;28;20552;-82
2021/07/11 07:02:10;;;;;;;0.93;0.50;;;19.10;99.90;;;;;;5041477;28;20199;-83
2021/07/11 07:04:36;;;;;;;5.87;1.03;;;19.10;99.90;;;;;;5050583;28;20206;-82
2021/07/11 07:07:02;;;;;;;0.20;0.20;;;19.00;99.90;;;;;;5041103;28;20195;-82
2021/07/11 07:09:28;;;;;;;0.20;0.20;;;18.70;99.90;;;;;;5035269;28;20194;-82
2021/07/11 07:11:54;;;;;;;0.23;0.23;;;18.80;99.90;;;;;;5053232;28;20235;-82
2021/07/11 07:14:19;;;;;;;0.30;0.30;;;18.60;99.90;;;;;;5053022;28;20292;-82
2021/07/11 07:16:45;;;;;;;0.20;0.20;;;18.60;99.90;;;;;;5031965;28;20205;-82
2021/07/11 07:19:10;;;;;;;0.43;0.43;;;18.70;99.90;;;;;;5037380;28;20197;-82
2021/07/11 07:21:36;;;;;;;0.40;0.40;;;18.70;99.90;;;;;;5036345;28;20197;-81
2021/07/11 07:24:02;;;;;;;0.40;0.40;;;18.90;99.90;;;;;;5046804;28;20241;-82
2021/07/11 07:26:28;;;;;;;0.30;0.30;;;18.80;99.90;;;;;;5060242;28;20188;-82
2021/07/11 07:28:54;;;;;;;0.20;0.20;;;18.90;99.90;;;;;;5037996;28;20919;-82
2021/07/11 07:31:19;;;;;;;0.17;0.17;;;18.60;99.90;;;;;;5037172;28;20216;-82
2021/07/11 07:33:45;;;;;;;0.30;0.30;;;18.80;99.90;;;;;;5033395;28;20205;-82
2021/07/11 07:36:11;;;;;;;0.43;0.43;;;18.80;99.90;;;;;;5035306;28;20254;-82
2021/07/11 07:38:36;;;;;;;0.20;0.20;;;18.80;99.90;;;;;;5034309;28;20181;-82
2021/07/11 07:41:02;;;;;;;0.37;0.37;;;18.90;99.90;;;;;;5036769;28;20189;-82
2021/07/11 07:43:28;;;;;;;0.27;0.27;;;18.90;99.90;;;;;;5036110;28;20185;-82
2021/07/11 07:45:53;;;;;;;0.63;0.63;;;19.10;99.90;;;;;;5055093;28;20213;-82
2021/07/11 07:48:19;;;;;;;0.20;0.20;;;19.30;99.90;;;;;;5050638;28;20537;-83
2021/07/11 07:50:47;;;;;;;0.30;0.30;;;19.40;99.90;;;;;;5052347;28;20204;-83
2021/07/11 07:53:12;;;;;;;0.40;0.30;;;19.50;99.90;;;;;;5038280;28;20182;-83
2021/07/11 07:55:38;;;;;;;0.20;0.20;;;19.60;99.90;;;;;;5042023;28;20691;-82
2021/07/11 07:58:04;;;;;;;0.20;0.20;;;19.70;99.90;;;;;;5038569;28;20300;-84
2021/07/11 08:00:30;;;;;;;0.27;0.27;;;19.80;99.90;;;;;;5034653;28;20196;-83
2021/07/11 08:02:55;;;;;;;0.23;0.23;;;19.70;99.90;;;;;;5036754;28;20236;-83
2021/07/11 08:05:21;;;;;;;0.33;0.33;;;19.80;99.90;;;;;;5037949;28;21051;-83
2021/07/11 08:07:47;;;;;;;0.27;0.27;;;19.90;99.90;;;;;;5057409;28;20213;-83
2021/07/11 08:10:18;;;;;;;0.50;0.50;;;20.00;99.90;;;;;;5042647;28;20618;-83
2021/07/11 08:12:45;;;;;;;0.20;0.20;;;20.10;99.90;;;;;;5038307;28;20191;-83
2021/07/11 08:15:16;;;;;;;1.30;0.83;;;20.30;99.90;;;;;;5052907;28;20202;-84
2021/07/11 08:17:43;;;;;;;0.40;0.40;;;20.00;99.90;;;;;;5040314;28;20212;-83
2021/07/11 08:20:10;;;;;;;0.20;0.20;;;20.10;99.90;;;;;;5042682;28;20268;-83
2021/07/11 08:22:35;;;;;;;0.43;0.43;;;20.20;99.90;;;;;;5036869;28;20201;-83
2021/07/11 08:25:02;;;;;;;0.73;0.40;;;20.30;99.90;;;;;;5037215;28;20237;-83
2021/07/11 08:27:28;;;;;;;0.47;0.40;;;20.40;99.90;;;;;;5056308;28;20189;-83
2021/07/11 08:29:54;;;;;;;0.37;0.37;;;20.40;99.90;;;;;;5038365;28;20193;-83
2021/07/11 08:32:20;;;;;;;0.60;0.57;;;20.40;99.90;;;;;;5036612;28;20621;-83
2021/07/11 08:34:46;;;;;;;0.33;0.33;;;20.50;99.90;;;;;;5062834;28;20350;-83
2021/07/11 08:37:11;;;;;;;0.50;0.50;;;20.60;99.90;;;;;;5040457;28;20291;-83
2021/07/11 08:39:37;;;;;;;0.20;0.20;;;20.80;99.90;;;;;;5050250;28;20561;-83
2021/07/11 08:42:06;;;;;;;0.27;0.27;;;21.00;99.90;;;;;;5062477;28;20187;-80
2021/07/11 08:44:32;;;;;;;0.40;0.40;;;21.30;99.90;;;;;;5045511;28;20255;-81
2021/07/11 08:46:58;;;;;;;0.67;0.40;;;21.40;99.90;;;;;;5038365;28;20189;-81
2021/07/11 08:49:24;;;;;;;0.40;0.40;;;21.40;99.90;;;;;;5038268;28;20212;-83
2021/07/11 08:51:56;;;;;;;0.30;0.30;;;21.40;99.90;;;;;;5049479;28;20189;-85
2021/07/11 08:54:22;;;;;;;0.50;0.47;;;21.40;99.90;;;;;;5045092;28;20225;-83
2021/07/11 08:56:47;;;;;;;0.30;0.30;;;21.30;99.90;;;;;;5036242;28;20319;-83
2021/07/11 08:59:13;;;;;;;0.53;0.53;;;21.30;99.90;;;;;;5036483;28;20205;-83
2021/07/11 09:01:39;;;;;;;0.63;0.63;;;21.40;99.90;;;;;;5038358;28;20185;-82
2021/07/11 09:04:09;;;;;;;0.87;0.87;;;21.50;99.90;;;;;;5036712;28;20215;-82
2021/07/11 09:06:54;;;;;;;0.53;0.53;;;21.50;99.90;;;;;;5034928;28;20186;-83
2021/07/11 09:09:24;;;;;;;0.97;0.60;;;21.60;99.90;;;;;;5064032;28;20185;-82
2021/07/11 09:11:55;;;;;;;0.43;0.43;;;21.60;99.90;;;;;;5059040;28;20186;-83
2021/07/11 09:14:25;;;;;;;0.37;0.37;;;21.60;99.90;;;;;;5036489;28;20263;-82
2021/07/11 09:16:53;;;;;;;0.57;0.57;;;21.70;99.90;;;;;;5044451;28;20209;-82
2021/07/11 09:19:28;;;;;;;0.30;0.30;;;21.80;99.90;;;;;;5057822;28;20192;-83
2021/07/11 09:22:06;;;;;;;0.43;0.43;;;21.80;99.90;;;;;;5056799;28;20239;-82
2021/07/11 09:24:33;;;;;;;1.17;0.70;;;21.80;99.90;;;;;;5058898;28;20263;-83
2021/07/11 09:27:11;;;;;;;1.10;1.00;;;21.80;99.90;;;;;;5051026;28;20200;-83
2021/07/11 09:29:38;;;;;;;0.70;0.70;;;21.70;99.90;;;;;;5052221;28;20186;-82
2021/07/11 09:32:05;;;;;;;0.27;0.27;;;21.60;99.90;;;;;;5041560;28;20193;-82
2021/07/11 09:34:32;;;;;;;0.43;0.43;;;21.50;99.90;;;;;;5044317;28;20216;-83
2021/07/11 09:37:13;;;;;;;0.50;0.50;;;21.40;99.90;;;;;;5047663;28;20209;-83
2021/07/11 09:40:05;;;;;;;1.97;0.77;;;21.20;99.90;;;;;;5041342;28;20755;-81
2021/07/11 09:42:40;;;;;;;0.63;0.63;;;21.20;99.90;;;;;;5061150;28;20746;-82
2021/07/11 09:45:16;;;;;;;1.50;0.63;;;21.20;99.90;;;;;;5067186;28;20630;-83
2021/07/11 09:47:42;;;;;;;0.80;0.63;;;21.10;99.90;;;;;;5038391;28;20189;-84
2021/07/11 09:50:14;;;;;;;0.77;0.77;;;21.10;99.90;;;;;;5045293;28;20189;-84
2021/07/11 09:52:44;;;;;;;0.33;0.33;;;21.20;99.90;;;;;;5038045;28;20181;-83
2021/07/11 09:55:14;;;;;;;1.03;0.80;;;21.40;99.90;;;;;;5060120;28;20713;-84
2021/07/11 09:57:45;;;;;;;1.17;1.00;;;21.40;99.90;;;;;;5052536;28;20209;-83
2021/07/11 10:00:24;;;;;;;0.40;0.40;;;21.50;99.90;;;;;;5036334;28;20188;-84
2021/07/11 10:02:58;;;;;;;0.70;0.53;;;21.70;99.90;;;;;;5041851;28;20184;-84
2021/07/11 10:05:25;;;;;;;2.23;1.33;;;21.80;99.90;;;;;;5049935;28;20205;-84
2021/07/11 10:07:52;;;;;;;0.77;0.77;;;21.70;99.90;;;;;;5054642;28;20196;-84
2021/07/11 10:10:22;;;;;;;0.93;0.90;;;21.90;99.90;;;;;;5042261;28;20192;-83
2021/07/11 10:12:48;;;;;;;0.70;0.70;;;22.10;99.90;;;;;;5063555;28;20230;-84
2021/07/11 10:15:17;;;;;;;1.33;1.23;;;22.20;99.90;;;;;;5037345;28;20227;-83
2021/07/11 10:17:49;;;;;;;0.73;0.73;;;22.10;99.90;;;;;;5053436;28;20213;-83
2021/07/11 10:20:18;;;;;;;1.00;0.80;;;22.20;99.90;;;;;;5044937;28;20201;-83
2021/07/11 10:22:52;;;;;;;1.10;1.00;;;22.10;99.90;;;;;;5072287;28;20185;-83
2021/07/11 10:25:24;;;;;;;0.97;0.90;;;22.20;99.90;;;;;;5041549;28;20854;-84
2021/07/11 10:28:04;;;;;;;0.60;0.60;;;22.40;99.90;;;;;;5037449;28;20197;-84
2021/07/11 10:30:31;;;;;;;0.97;0.90;;;22.50;99.90;;;;;;5033862;28;20272;-83
2021/07/11 10:33:08;;;;;;;0.60;0.60;;;22.60;99.90;;;;;;5066793;28;20196;-84
2021/07/11 10:35:34;;;;;;;1.07;0.63;;;22.90;99.90;;;;;;5066357;28;20204;-84
2021/07/11 10:38:00;;;;;;;0.80;0.63;;;23.00;99.90;;;;;;5067929;28;20239;-83
2021/07/11 10:40:31;;;;;;;2.10;1.10;;;23.00;99.90;;;;;;5057298;28;20173;-84
2021/07/11 10:45:23;;;;;;;0.60;0.60;;;22.90;99.90;;;;;;5092955;22;20237;-85
2021/07/11 10:47:50;;;;;;;0.97;0.87;;;23.00;99.90;;;;;;5073566;28;20176;-86
2021/07/11 10:50:28;;;;;;;1.03;0.90;;;23.20;99.90;;;;;;5076520;28;20648;-85
2021/07/11 10:52:57;;;;;;;1.03;0.80;;;23.00;99.90;;;;;;5085357;28;20192;-85
2021/07/11 10:55:34;;;;;;;0.97;0.97;;;23.00;99.90;;;;;;5050485;28;20193;-85
2021/07/11 10:58:10;;;;;;;0.60;0.60;;;23.10;99.90;;;;;;5071645;28;20212;-84
2021/07/11 11:00:36;;;;;;;0.87;0.73;;;23.20;99.90;;;;;;5055610;28;20177;-85
2021/07/11 11:03:15;;;;;;;0.80;0.80;;;23.30;99.90;;;;;;5076575;28;20660;-86
2021/07/11 11:05:42;;;;;;;0.90;0.90;;;23.50;99.90;;;;;;5044076;28;20184;-85
2021/07/11 11:08:17;;;;;;;0.80;0.43;;;23.50;99.90;;;;;;5067523;28;20260;-85
2021/07/11 11:10:45;;;;;;;0.57;0.57;;;23.40;99.90;;;;;;5047669;28;20219;-85
2021/07/11 11:13:20;;;;;;;0.73;0.73;;;23.20;99.90;;;;;;5052724;28;20196;-85
2021/07/11 11:15:59;;;;;;;0.63;0.63;;;23.00;99.90;;;;;;5055836;28;20180;-85
2021/07/11 11:18:31;;;;;;;1.07;0.90;;;22.90;99.90;;;;;;5054947;28;20207;-85
2021/07/11 11:21:14;;;;;;;0.93;0.77;;;22.90;99.90;;;;;;5065425;28;20190;-85
2021/07/11 11:23:52;;;;;;;0.50;0.50;;;22.80;99.90;;;;;;5070723;28;20205;-85
2021/07/11 11:26:28;;;;;;;0.53;0.53;;;22.80;99.90;;;;;;5049151;28;20185;-85
2021/07/11 11:28:57;;;;;;;0.90;0.90;;;22.60;99.90;;;;;;5074560;28;20181;-86
2021/07/11 11:31:24;;;;;;;0.40;0.40;;;22.50;99.90;;;;;;5059247;28;20181;-86
2021/07/11 11:33:57;;;;;;;1.17;0.70;;;22.50;99.90;;;;;;5059052;28;20292;-86
2021/07/11 11:36:28;;;;;;;0.73;0.70;;;22.40;99.90;;;;;;5069815;28;20202;-85
2021/07/11 11:38:55;;;;;;;0.77;0.77;;;22.20;99.90;;;;;;5051796;28;20522;-85
2021/07/11 11:41:22;;;;;;;0.70;0.57;;;22.10;99.90;;;;;;5051036;28;20186;-85
2021/07/11 11:43:48;;;;;;;0.93;0.93;;;22.00;99.90;;;;;;5074137;28;20217;-85
2021/07/11 11:46:28;;;;;;;0.60;0.60;;;22.00;99.90;;;;;;5064144;28;20556;-88
2021/07/11 11:49:02;;;;;;;0.70;0.40;;;22.00;99.90;;;;;;5045928;28;20660;-86
2021/07/11 11:51:29;;;;;;;0.50;0.50;;;22.00;99.90;;;;;;5057876;28;20180;-89
2021/07/11 11:53:54;;;;;;;0.87;0.87;;;22.20;99.90;;;;;;5059643;28;20193;-89
2021/07/11 11:56:21;;;;;;;0.77;0.77;;;22.40;99.90;;;;;;5062963;28;20234;-90
2021/07/11 11:58:46;;;;;;;1.50;1.23;;;22.40;99.90;;;;;;5047505;28;20174;-89
2021/07/11 12:01:15;;;;;;;0.47;0.40;;;22.60;99.90;;;;;;5071406;28;20182;-88
2021/07/11 12:03:44;;;;;;;0.20;0.20;;;22.60;99.90;;;;;;5076352;28;20725;-88
2021/07/11 12:06:13;;;;;;;0.60;0.60;;;23.10;99.90;;;;;;5078705;28;20184;-90
2021/07/11 12:08:44;;;;;;;0.40;0.40;;;23.50;99.90;;;;;;5089084;28;20181;-90
2021/07/11 12:11:13;;;;;;;0.73;0.63;;;23.80;99.90;;;;;;5093349;28;20193;-95
2021/07/11 12:13:40;;;;;;;1.20;0.57;;;24.00;99.90;;;;;;5075771;28;20204;-87
2021/07/11 12:16:09;;;;;;;1.00;0.40;;;24.00;99.90;;;;;;5072910;28;20188;-86
2021/07/11 12:18:45;;;;;;;1.13;0.90;;;23.60;99.90;;;;;;5050843;28;20716;-85
2021/07/11 12:21:11;;;;;;;0.23;0.23;;;24.00;99.90;;;;;;5044399;28;20181;-86
2021/07/11 12:23:37;;;;;;;0.60;0.60;;;24.20;99.90;;;;;;5043940;28;20217;-85
2021/07/11 12:26:05;;;;;;;0.67;0.50;;;24.50;99.90;;;;;;5055616;28;20180;-85
2021/07/11 12:28:32;;;;;;;0.60;0.60;;;24.60;99.90;;;;;;5049257;28;20211;-85
2021/07/11 12:30:58;;;;;;;0.97;0.70;;;25.00;99.90;;;;;;5039151;28;20259;-86
2021/07/11 12:33:27;;;;;;;1.20;0.40;;;24.90;99.90;;;;;;5043678;28;20259;-86
2021/07/11 12:35:58;;;;;;;0.63;0.50;;;24.80;99.90;;;;;;5070054;28;20268;-85
2021/07/11 12:38:41;;;;;;;0.40;0.40;;;25.00;99.90;;;;;;5045388;28;20695;-85
2021/07/11 12:41:09;;;;;;;0.97;0.70;;;25.30;99.90;;;;;;5048831;28;20185;-86
2021/07/11 12:43:51;;;;;;;0.50;0.50;;;25.50;99.90;;;;;;5062607;28;20224;-85
2021/07/11 12:46:22;;;;;;;0.60;0.60;;;25.10;99.90;;;;;;5060131;28;20178;-86
2021/07/11 12:48:50;;;;;;;0.77;0.77;;;25.40;99.90;;;;;;5061943;28;20178;-86
2021/07/11 12:51:29;;;;;;;0.43;0.43;;;25.50;99.90;;;;;;5053870;28;20565;-86
2021/07/11 12:54:16;;;;;;;1.03;0.73;;;25.90;99.90;;;;;;5069047;28;20200;-86
2021/07/11 12:57:02;;;;;;;3.30;0.70;;;25.50;99.90;;;;;;5065517;28;20305;-86